createdAt,value
2023-01-25T00:00:19.705Z,102688.13
2023-01-25T00:03:21.375Z,102680.09
2023-01-25T00:06:23.065Z,102681.03
2023-01-25T00:09:27.640Z,102668.44
2023-01-25T00:12:29.129Z,102661.28
2023-01-25T00:15:30.916Z,102654.88
2023-01-25T00:18:32.393Z,102653.03
2023-01-25T00:21:34.849Z,102651.16
2023-01-25T00:24:36.383Z,102644.00
2023-01-25T00:27:38.023Z,102640.44
2023-01-25T00:30:39.537Z,102641.53
2023-01-25T00:33:50.826Z,102642.38
2023-01-25T00:37:02.351Z,102631.63
2023-01-25T00:40:05.129Z,102632.69
2023-01-25T00:43:06.628Z,102627.28
2023-01-25T00:46:09.294Z,102621.97
2023-01-25T00:49:26.577Z,102630.13
2023-01-25T00:52:28.635Z,102629.44
2023-01-25T00:55:30.123Z,102632.28
2023-01-25T00:58:31.729Z,102624.13
2023-01-25T01:01:34.825Z,102618.78
2023-01-25T01:04:36.440Z,102616.22
2023-01-25T01:07:38.481Z,102623.44
2023-01-25T01:10:40.393Z,102610.88
2023-01-25T01:13:41.971Z,102614.56
2023-01-25T01:16:43.551Z,102620.97
2023-01-25T01:19:45.082Z,102620.88
2023-01-25T01:22:46.557Z,102619.09
2023-01-25T01:25:48.096Z,102621.94
2023-01-25T01:28:49.687Z,102616.53
2023-01-25T01:31:53.557Z,102617.47
2023-01-25T01:34:58.621Z,102615.66
2023-01-25T01:38:00.150Z,102614.88
2023-01-25T01:41:01.843Z,102612.25
2023-01-25T01:44:04.635Z,102605.00
2023-01-25T01:47:15.149Z,102601.41
2023-01-25T01:50:21.048Z,102599.56
2023-01-25T01:53:25.032Z,102596.97
2023-01-25T01:56:32.644Z,102589.69
2023-01-25T01:59:50.998Z,102587.97
2023-01-25T02:02:54.358Z,102583.50
2023-01-25T02:06:47.032Z,102581.56
2023-01-25T02:09:51.319Z,102575.38
2023-01-25T02:12:55.521Z,102573.50
2023-01-25T02:15:58.587Z,102569.94
2023-01-25T02:19:02.365Z,102564.50
2023-01-25T02:22:10.117Z,102568.22
2023-01-25T02:25:14.757Z,102575.50
2023-01-25T02:28:43.699Z,102575.50
2023-01-25T02:31:47.468Z,102572.88
2023-01-25T02:34:49.080Z,102568.53
2023-01-25T02:37:51.827Z,102573.09
2023-01-25T02:41:06.919Z,102572.09
2023-01-25T02:44:12.701Z,102569.50
2023-01-25T02:47:15.918Z,102565.16
2023-01-25T02:50:17.681Z,102561.47
2023-01-25T02:53:19.251Z,102562.47
2023-01-25T02:56:21.610Z,102555.19
2023-01-25T02:59:23.688Z,102541.63
2023-01-25T03:02:28.782Z,102538.03
2023-01-25T03:05:30.284Z,102531.72
2023-01-25T03:08:33.909Z,102523.59
2023-01-25T03:11:36.122Z,102524.47
2023-01-25T03:14:37.864Z,102517.31
2023-01-25T03:17:39.463Z,102503.88
2023-01-25T03:20:41.197Z,102513.81
2023-01-25T03:23:43.927Z,102517.44
2023-01-25T03:27:06.562Z,102503.97
2023-01-25T03:30:13.712Z,102511.25
2023-01-25T03:33:15.224Z,102509.38
2023-01-25T03:36:16.860Z,102498.63
2023-01-25T03:39:18.431Z,102504.06
2023-01-25T03:42:21.365Z,102511.25
2023-01-25T03:45:26.985Z,102497.78
2023-01-25T03:48:29.661Z,102488.69
2023-01-25T03:51:31.362Z,102486.81
2023-01-25T03:54:33.139Z,102492.34
2023-01-25T03:57:34.838Z,102488.78
2023-01-25T04:00:39.427Z,102474.22
2023-01-25T04:03:41.058Z,102481.41
2023-01-25T04:06:43.703Z,102476.84
2023-01-25T04:09:45.280Z,102480.31
2023-01-25T04:12:47.550Z,102478.38
2023-01-25T04:15:49.899Z,102469.25
2023-01-25T04:19:04.482Z,102474.59
2023-01-25T04:22:08.879Z,102464.47
2023-01-25T04:25:12.575Z,102463.38
2023-01-25T04:28:22.067Z,102455.25
2023-01-25T04:31:23.803Z,102459.59
2023-01-25T04:34:25.591Z,102450.50
2023-01-25T04:37:27.178Z,102447.66
2023-01-25T04:40:32.548Z,102451.13
2023-01-25T04:43:34.175Z,102445.59
2023-01-25T04:46:40.785Z,102428.47
2023-01-25T04:49:42.292Z,102439.19
2023-01-25T04:52:44.727Z,102431.06
2023-01-25T04:55:47.852Z,102439.19
2023-01-25T04:58:50.197Z,102437.56
2023-01-25T05:01:51.736Z,102435.72
2023-01-25T05:04:53.262Z,102436.81
2023-01-25T05:07:56.031Z,102434.97
2023-01-25T05:10:57.697Z,102436.81
2023-01-25T05:14:17.624Z,102437.78
2023-01-25T05:17:20.786Z,102431.59
2023-01-25T05:20:22.555Z,102429.88
2023-01-25T05:23:24.275Z,102432.69
2023-01-25T05:26:46.255Z,102428.25
2023-01-25T05:29:48.115Z,102416.63
2023-01-25T05:32:50.533Z,102418.47
2023-01-25T05:35:53.695Z,102417.72
2023-01-25T05:38:56.053Z,102419.56
2023-01-25T05:41:57.726Z,102405.25
2023-01-25T05:44:59.243Z,102402.63
2023-01-25T05:48:00.917Z,102405.34
2023-01-25T05:51:02.417Z,102402.75
2023-01-25T05:54:06.979Z,102401.78
2023-01-25T05:57:09.108Z,102412.53
2023-01-25T06:00:11.509Z,102405.25
2023-01-25T06:03:16.092Z,102405.16
2023-01-25T06:06:18.731Z,102404.06
2023-01-25T06:09:20.888Z,102397.75
2023-01-25T06:12:22.512Z,102405.69
2023-01-25T06:15:25.177Z,102409.03
2023-01-25T06:18:31.520Z,102411.53
2023-01-25T06:21:53.424Z,102398.81
2023-01-25T06:24:54.919Z,102392.44
2023-01-25T06:27:56.427Z,102392.22
2023-01-25T06:31:04.185Z,102391.03
2023-01-25T06:34:06.367Z,102385.69
2023-01-25T06:37:08.112Z,102389.28
2023-01-25T06:40:10.279Z,102389.19
2023-01-25T06:43:12.020Z,102388.31
2023-01-25T06:46:13.879Z,102377.56
2023-01-25T06:49:15.406Z,102385.69
2023-01-25T06:52:16.940Z,102382.13
2023-01-25T06:55:18.453Z,102387.66
2023-01-25T06:58:19.993Z,102385.06
2023-01-25T07:01:26.905Z,102389.59
2023-01-25T07:04:28.727Z,102397.00
2023-01-25T07:07:30.570Z,102394.28
2023-01-25T07:10:33.864Z,102388.97
2023-01-25T07:13:35.830Z,102383.63
2023-01-25T07:16:38.404Z,102390.06
2023-01-25T07:19:39.865Z,102394.63
2023-01-25T07:22:41.314Z,102385.72
2023-01-25T07:25:50.508Z,102382.91
2023-01-25T07:28:52.732Z,102374.88
2023-01-25T07:31:54.240Z,102379.31
2023-01-25T07:34:55.744Z,102382.00
2023-01-25T07:37:57.267Z,102386.56
2023-01-25T07:40:58.857Z,102384.84
2023-01-25T07:44:00.643Z,102390.28
2023-01-25T07:47:08.619Z,102378.56
2023-01-25T07:50:10.887Z,102381.28
2023-01-25T07:53:16.810Z,102385.81
2023-01-25T07:56:19.399Z,102381.38
2023-01-25T07:59:20.882Z,102371.63
2023-01-25T08:02:22.443Z,102375.19
2023-01-25T08:05:25.339Z,102368.13
2023-01-25T08:08:27.025Z,102373.56
2023-01-25T08:11:30.784Z,102373.56
2023-01-25T08:14:32.902Z,102376.41
2023-01-25T08:17:34.450Z,102370.09
2023-01-25T08:20:37.617Z,102375.50
2023-01-25T08:23:39.135Z,102377.34
2023-01-25T08:26:40.659Z,102365.66
2023-01-25T08:29:42.177Z,102361.09
2023-01-25T08:32:43.673Z,102356.66
2023-01-25T08:35:55.723Z,102361.94
2023-01-25T08:38:59.950Z,102352.19
2023-01-25T08:42:01.465Z,102359.47
2023-01-25T08:45:03.093Z,102351.31
2023-01-25T08:48:04.981Z,102348.63
2023-01-25T08:51:12.856Z,102346.75
2023-01-25T08:54:14.380Z,102337.78
2023-01-25T08:57:15.962Z,102339.72
2023-01-25T09:00:18.077Z,102336.16
2023-01-25T09:03:19.548Z,102327.16
2023-01-25T09:06:21.555Z,102324.34
2023-01-25T09:09:24.869Z,102321.50
2023-01-25T09:12:26.462Z,102323.34
2023-01-25T09:15:28.351Z,102326.91
2023-01-25T09:18:31.272Z,102314.22
2023-01-25T09:21:33.534Z,102310.56
2023-01-25T09:24:37.277Z,102307.06
2023-01-25T09:27:38.975Z,102309.56
2023-01-25T09:30:48.527Z,102308.69
2023-01-25T09:34:01.039Z,102315.97
2023-01-25T09:37:02.516Z,102305.13
2023-01-25T09:40:04.904Z,102304.28
2023-01-25T09:43:20.102Z,102300.66
2023-01-25T09:46:36.969Z,102288.09
2023-01-25T09:50:13.180Z,102294.50
2023-01-25T09:53:39.255Z,102276.50
2023-01-25T09:56:40.934Z,102271.19
2023-01-25T09:59:45.322Z,102271.06
2023-01-25T10:02:57.792Z,102261.97
2023-01-25T10:06:02.047Z,102262.94
2023-01-25T10:09:21.797Z,102260.97
2023-01-25T10:12:25.677Z,102264.69
2023-01-25T10:15:38.363Z,102260.88
2023-01-25T10:19:07.502Z,102254.47
2023-01-25T10:22:23.511Z,102254.22
2023-01-25T10:25:34.919Z,102245.00
2023-01-25T10:28:44.036Z,102230.47
2023-01-25T10:31:50.444Z,102228.50
2023-01-25T10:35:08.443Z,102225.59
2023-01-25T10:38:27.108Z,102216.47
2023-01-25T10:41:40.692Z,102215.38
2023-01-25T10:44:42.327Z,102205.50
2023-01-25T10:47:48.306Z,102210.69
2023-01-25T10:50:52.556Z,102203.41
2023-01-25T10:53:59.828Z,102192.47
2023-01-25T10:57:01.767Z,102189.63
2023-01-25T11:00:10.529Z,102192.97
2023-01-25T11:03:22.063Z,102188.28
2023-01-25T11:06:38.775Z,102187.94
2023-01-25T11:09:40.306Z,102175.38
2023-01-25T11:12:41.830Z,102169.81
2023-01-25T11:15:46.237Z,102174.13
2023-01-25T11:18:54.262Z,102167.75
2023-01-25T11:21:58.506Z,102159.47
2023-01-25T11:25:28.648Z,102148.41
2023-01-25T11:28:30.272Z,102152.09
2023-01-25T11:31:31.852Z,102148.41
2023-01-25T11:34:33.381Z,102142.97
2023-01-25T11:38:02.826Z,102138.28
2023-01-25T11:41:21.821Z,102131.03
2023-01-25T11:44:42.271Z,102118.34
2023-01-25T11:48:25.283Z,102110.00
2023-01-25T11:52:03.651Z,102103.22
2023-01-25T11:55:14.286Z,102086.28
2023-01-25T11:58:34.518Z,102089.16
2023-01-25T12:01:49.777Z,102073.50
2023-01-25T12:05:21.160Z,102077.66
2023-01-25T12:08:49.177Z,102067.78
2023-01-25T12:12:18.529Z,102051.09
2023-01-25T12:15:42.398Z,102043.50
2023-01-25T12:19:05.081Z,102037.91
2023-01-25T12:22:28.369Z,102031.19
2023-01-25T12:25:49.043Z,102012.81
2023-01-25T12:28:53.528Z,102011.59
2023-01-25T12:32:12.704Z,102010.47
2023-01-25T12:35:28.117Z,102011.31
2023-01-25T12:38:38.564Z,102012.38
2023-01-25T12:41:57.144Z,102006.28
2023-01-25T12:45:15.649Z,101987.63
2023-01-25T12:48:22.862Z,101979.78
2023-01-25T12:51:28.809Z,101977.59
2023-01-25T12:54:36.159Z,101978.00
2023-01-25T12:57:59.027Z,101977.53
2023-01-25T13:01:19.432Z,101951.03
2023-01-25T13:05:02.719Z,101935.53
2023-01-25T13:08:31.082Z,101930.97
2023-01-25T13:11:40.827Z,101933.47
2023-01-25T13:14:42.434Z,101927.16
2023-01-25T13:17:44.012Z,101918.81
2023-01-25T13:20:49.243Z,101916.69
2023-01-25T13:24:11.137Z,101905.63
2023-01-25T13:27:27.724Z,101909.06
2023-01-25T13:30:34.537Z,101896.25
2023-01-25T13:33:37.019Z,101893.56
2023-01-25T13:36:41.555Z,101878.91
2023-01-25T13:39:45.832Z,101871.63
2023-01-25T13:43:00.290Z,101863.38
2023-01-25T13:46:05.899Z,101872.38
2023-01-25T13:49:21.202Z,101869.50
2023-01-25T13:52:25.206Z,101869.41
2023-01-25T13:55:27.880Z,101858.66
2023-01-25T13:58:36.313Z,101857.56
2023-01-25T14:01:37.930Z,101864.84
2023-01-25T14:04:39.569Z,101869.41
2023-01-25T14:07:45.382Z,101873.72
2023-01-25T14:10:47.468Z,101858.31
2023-01-25T14:14:18.120Z,101863.63
2023-01-25T14:17:23.142Z,101861.75
2023-01-25T14:20:24.909Z,101852.63
2023-01-25T14:23:29.043Z,101851.66
2023-01-25T14:26:32.081Z,101853.53
2023-01-25T14:29:40.311Z,101846.25
2023-01-25T14:32:41.978Z,101845.25
2023-01-25T14:36:11.580Z,101842.41
2023-01-25T14:39:21.377Z,101848.59
2023-01-25T14:42:22.948Z,101853.13
2023-01-25T14:45:26.857Z,101848.69
2023-01-25T14:48:35.206Z,101845.88
2023-01-25T14:51:43.399Z,101848.69
2023-01-25T14:54:50.286Z,101846.84
2023-01-25T14:57:52.046Z,101846.00
2023-01-25T15:01:00.557Z,101840.44
2023-01-25T15:04:02.696Z,101839.56
2023-01-25T15:07:16.815Z,101833.19
2023-01-25T15:10:29.663Z,101823.19
2023-01-25T15:13:31.180Z,101835.88
2023-01-25T15:16:34.278Z,101822.31
2023-01-25T15:19:35.921Z,101834.03
2023-01-25T15:22:37.448Z,101811.47
2023-01-25T15:25:52.521Z,101811.22
2023-01-25T15:28:56.902Z,101799.53
2023-01-25T15:31:58.538Z,101803.81
2023-01-25T15:35:00.045Z,101803.31
2023-01-25T15:38:01.580Z,101801.25
2023-01-25T15:41:03.114Z,101793.28
2023-01-25T15:44:04.718Z,101791.75
2023-01-25T15:47:06.235Z,101792.94
2023-01-25T15:50:17.625Z,101798.28
2023-01-25T15:53:19.072Z,101794.75
2023-01-25T15:56:24.660Z,101779.38
2023-01-25T15:59:27.083Z,101779.69
2023-01-25T16:02:28.780Z,101784.38
2023-01-25T16:05:30.330Z,101778.38
2023-01-25T16:08:31.944Z,101777.78
2023-01-25T16:11:33.424Z,101764.63
2023-01-25T16:14:34.920Z,101759.59
2023-01-25T16:17:36.457Z,101756.38
2023-01-25T16:20:37.957Z,101758.59
2023-01-25T16:23:40.311Z,101756.38
2023-01-25T16:26:48.129Z,101753.19
2023-01-25T16:29:49.779Z,101751.22
2023-01-25T16:32:52.760Z,101757.13
2023-01-25T16:36:13.915Z,101754.91
2023-01-25T16:39:19.987Z,101755.53
2023-01-25T16:42:22.761Z,101757.13
2023-01-25T16:45:25.387Z,101740.59
2023-01-25T16:48:26.916Z,101740.47
2023-01-25T16:51:28.865Z,101733.78
2023-01-25T16:54:30.371Z,101743.53
2023-01-25T16:57:31.857Z,101731.72
2023-01-25T17:00:33.595Z,101732.31
2023-01-25T17:03:35.037Z,101724.81
2023-01-25T17:06:43.412Z,101723.69
2023-01-25T17:09:44.971Z,101714.66
2023-01-25T17:12:46.524Z,101726.41
2023-01-25T17:15:48.201Z,101724.53
2023-01-25T17:18:55.480Z,101725.13
2023-01-25T17:21:59.028Z,101711.72
2023-01-25T17:25:00.531Z,101707.25
2023-01-25T17:28:02.032Z,101706.41
2023-01-25T17:31:03.818Z,101700.13
2023-01-25T17:34:07.956Z,101702.59
2023-01-25T17:37:09.551Z,101706.16
2023-01-25T17:40:12.025Z,101696.91
2023-01-25T17:43:14.173Z,101689.38
2023-01-25T17:46:22.480Z,101691.69
2023-01-25T17:49:26.081Z,101685.13
2023-01-25T17:52:27.560Z,101684.03
2023-01-25T17:55:29.547Z,101685.63
2023-01-25T17:58:34.154Z,101684.66
2023-01-25T18:01:36.247Z,101682.81
2023-01-25T18:04:37.843Z,101678.13
2023-01-25T18:07:39.477Z,101668.97
2023-01-25T18:10:41.246Z,101670.72
2023-01-25T18:13:48.040Z,101670.56
2023-01-25T18:16:50.411Z,101675.03
2023-01-25T18:19:52.063Z,101678.44
2023-01-25T18:22:54.023Z,101671.19
2023-01-25T18:25:55.518Z,101662.03
2023-01-25T18:29:34.422Z,101669.06
2023-01-25T18:32:36.004Z,101669.19
2023-01-25T18:35:37.487Z,101674.50
2023-01-25T18:38:38.961Z,101661.78
2023-01-25T18:41:40.411Z,101648.09
2023-01-25T18:44:43.387Z,101645.38
2023-01-25T18:47:44.960Z,101648.81
2023-01-25T18:50:46.535Z,101637.81
2023-01-25T18:53:48.042Z,101629.41
2023-01-25T18:56:49.519Z,101624.88
2023-01-25T18:59:51.964Z,101622.00
2023-01-25T19:02:53.491Z,101618.31
2023-01-25T19:05:55.022Z,101604.56
2023-01-25T19:08:57.106Z,101597.16
2023-01-25T19:11:58.874Z,101595.31
2023-01-25T19:15:00.337Z,101600.63
2023-01-25T19:18:01.817Z,101609.63
2023-01-25T19:21:08.608Z,101599.34
2023-01-25T19:24:15.553Z,101599.22
2023-01-25T19:27:17.742Z,101584.78
2023-01-25T19:30:19.288Z,101581.22
2023-01-25T19:33:20.785Z,101581.22
2023-01-25T19:36:22.849Z,101583.78
2023-01-25T19:39:24.391Z,101576.66
2023-01-25T19:42:25.852Z,101582.94
2023-01-25T19:45:27.324Z,101582.81
2023-01-25T19:48:32.204Z,101580.94
2023-01-25T19:51:39.670Z,101573.53
2023-01-25T19:54:41.166Z,101565.38
2023-01-25T19:57:42.639Z,101568.09
2023-01-25T20:00:44.141Z,101576.25
2023-01-25T20:03:46.520Z,101568.09
2023-01-25T20:06:50.067Z,101564.50
2023-01-25T20:09:52.073Z,101555.50
2023-01-25T20:12:53.538Z,101559.06
2023-01-25T20:15:55.485Z,101559.81
2023-01-25T20:18:57.151Z,101560.66
2023-01-25T20:22:00.408Z,101551.66
2023-01-25T20:25:02.033Z,101540.78
2023-01-25T20:28:03.591Z,101538.22
2023-01-25T20:31:05.421Z,101551.06
2023-01-25T20:34:15.420Z,101555.50
2023-01-25T20:37:17.010Z,101545.78
2023-01-25T20:40:18.755Z,101547.50
2023-01-25T20:43:22.390Z,101545.78
2023-01-25T20:46:24.585Z,101549.50
2023-01-25T20:49:26.074Z,101541.47
2023-01-25T20:52:27.616Z,101539.59
2023-01-25T20:55:29.086Z,101535.75
2023-01-25T20:58:30.881Z,101538.47
2023-01-25T21:01:38.941Z,101525.50
2023-01-25T21:04:40.490Z,101519.34
2023-01-25T21:07:42.122Z,101514.19
2023-01-25T21:10:53.859Z,101522.34
2023-01-25T21:13:55.529Z,101523.59
2023-01-25T21:16:57.046Z,101518.44
2023-01-25T21:19:58.634Z,101505.88
2023-01-25T21:23:00.115Z,101501.44
2023-01-25T21:26:02.900Z,101507.88
2023-01-25T21:29:06.011Z,101506.00
2023-01-25T21:32:07.528Z,101506.84
2023-01-25T21:35:09.431Z,101504.03
2023-01-25T21:38:11.026Z,101502.28
2023-01-25T21:41:19.754Z,101498.72
2023-01-25T21:44:39.837Z,101500.00
2023-01-25T21:47:41.324Z,101506.41
2023-01-25T21:51:18.227Z,101500.25
2023-01-25T21:54:22.645Z,101495.09
2023-01-25T21:57:24.121Z,101493.66
2023-01-25T22:00:25.571Z,101501.94
2023-01-25T22:03:27.025Z,101501.34
2023-01-25T22:06:28.806Z,101491.63
2023-01-25T22:09:32.829Z,101494.56
2023-01-25T22:12:34.323Z,101502.03
2023-01-25T22:15:35.782Z,101498.69
2023-01-25T22:18:39.641Z,101503.25
2023-01-25T22:21:41.098Z,101510.78
2023-01-25T22:24:42.538Z,101506.34
2023-01-25T22:27:55.429Z,101509.06
2023-01-25T22:30:56.978Z,101494.91
2023-01-25T22:33:59.432Z,101490.44
2023-01-25T22:37:00.875Z,101494.28
2023-01-25T22:40:02.335Z,101495.28
2023-01-25T22:43:03.788Z,101497.44
2023-01-25T22:46:06.601Z,101486.69
2023-01-25T22:49:08.658Z,101479.69
2023-01-25T22:52:10.122Z,101475.38
2023-01-25T22:55:11.562Z,101470.22
2023-01-25T22:58:13.023Z,101465.78
2023-01-25T23:01:17.388Z,101465.94
2023-01-25T23:04:18.867Z,101462.50
2023-01-25T23:07:20.424Z,101458.94
2023-01-25T23:10:22.832Z,101452.66
2023-01-25T23:13:24.334Z,101458.19
2023-01-25T23:16:25.777Z,101449.31
2023-01-25T23:19:27.302Z,101452.88
2023-01-25T23:22:28.820Z,101435.91
2023-01-25T23:25:30.872Z,101435.19
2023-01-25T23:28:32.419Z,101430.72
2023-01-25T23:31:34.093Z,101423.72
2023-01-25T23:34:37.002Z,101414.00
2023-01-25T23:37:38.540Z,101411.56
2023-01-25T23:40:40.017Z,101410.59
2023-01-25T23:43:42.153Z,101404.44
2023-01-25T23:46:43.680Z,101401.72
2023-01-25T23:49:45.167Z,101393.59
2023-01-25T23:52:46.605Z,101390.16
2023-01-25T23:55:56.521Z,101391.84
2023-01-25T23:58:59.081Z,101387.56
